Time;durP1;ratioP1;P1;durP2;ratioP2;P2;SDS_P1;SDS_P2;PMS_P1;PMS_P2;Temp;Humidity;BMP_temperature;BMP_pressure;BME280_temperature;BME280_humidity;BME280_pressure;Samples;Min_cycle;Max_cycle;Signal;HPM_P1;HPM_P2
2022/05/30 03:40:30;;;;;;;;;;;;;;;;;;;;;
2022/05/30 03:49:00;;;;;;;;;;;;;;;6.23;88.86;99110.13;6170372;23;20254;-88
2022/05/30 03:51:35;;;;;;;;;;;;;;;;;;;;;
2022/05/30 04:29:55;;;;;;;;;;;;;;;;;;;;;
2022/05/30 04:32:54;;;;;;;;;;;;;;;;;;;;;
2022/05/30 04:35:50;;;;;;;;;;;;;;;;;;;;;
2022/05/30 04:44:57;;;;;;;;;;;;;;;;;;;;;
2022/05/30 08:30:35;;;;;;;;;;;;;;;;;;;;;
2022/05/30 08:33:40;;;;;;;;;;;;;;;;;;;;;
2022/05/30 08:43:01;;;;;;;;;;;;;;;6.33;91.69;99189.59;6255436;22;19969;-95
2022/05/30 08:52:37;;;;;;;;;;;;;;;;;;;;;
2022/05/30 08:58:42;;;;;;;;;;;;;;;;;;;;;
2022/05/30 09:05:07;;;;;;;;;;;;;;;;;;;;;
2022/05/30 09:30:00;;;;;;;;;;;;;;;6.47;92.02;99165.44;5872776;24;20318;-90
2022/05/30 09:55:28;;;;;;;;;;;;;;;;;;;;;
2022/05/30 10:10:56;;;;;;;;;;;;;;;;;;;;;
2022/05/30 12:42:07;;;;;;;;;;;;;;;;;;;;;
2022/05/30 12:44:55;;;;;;;;;;;;;;;;;;;;;
2022/05/30 12:51:36;;;;;;;;;;;;;;;;;;;;;
2022/05/30 12:54:00;;;;;;;;;;;;;;;;;;;;;
2022/05/30 12:56:58;;;;;;;;;;;;;;;6.68;91.05;99158.53;6212380;23;19984;-88
2022/05/30 12:59:59;;;;;;;;;;;;;;;;;;;;;
2022/05/30 13:02:53;;;;;;;;;;;;;;;;;;;;;
2022/05/30 13:06:10;;;;;;;;;;;;;;;;;;;;;
2022/05/30 13:15:38;;;;;;;;;;;;;;;;;;;;;
2022/05/30 13:21:14;;;;;;;;;;;;;;;;;;;;;
2022/05/30 13:23:59;;;;;;;;;;;;;;;6.87;91.79;99146.38;6276102;22;19995;-89
2022/05/30 13:26:35;;;;;;;;;;;;;;;;;;;;;
2022/05/30 13:29:30;;;;;;;;;;;;;;;;;;;;;
2022/05/30 13:32:09;;;;;;;;;;;;;;;;;;;;;
2022/05/30 13:34:34;;;;;;;;;;;;;;;6.86;91.81;99152.59;6275923;22;19997;-90
2022/05/30 13:37:10;;;;;;;;;;;;;;;6.93;91.43;99158.47;6276262;22;19953;-89
2022/05/30 13:40:06;;;;;;;;;;;;;;;;;;;;;
2022/05/30 13:43:17;;;;;;;;;;;;;;;;;;;;;
2022/05/30 13:45:44;;;;;;;;;;;;;;;;;;;;;
2022/05/30 13:48:25;;;;;;;;;;;;;;;6.89;91.68;99152.47;6276010;22;19993;-88
2022/05/30 13:51:13;;;;;;;;;;;;;;;;;;;;;
2022/05/30 13:53:57;;;;;;;;;;;;;;;6.86;91.35;99149.06;6275691;22;20382;-89
2022/05/30 13:56:45;;;;;;;;;;;;;;;6.78;91.08;99159.03;6275667;22;19989;-89
2022/05/30 13:59:23;;;;;;;;;;;;;;;6.82;91.24;99158.03;6250015;22;19997;-90
2022/05/30 14:02:11;;;;;;;;;;;;;;;6.81;90.88;99156.28;6248904;22;19912;-90
2022/05/30 14:04:56;;;;;;;;;;;;;;;6.85;90.71;99155.28;6182299;23;19912;-91
2022/05/30 14:07:48;;;;;;;;;;;;;;;6.76;90.68;99148.56;6274642;22;20315;-90
2022/05/30 14:10:34;;;;;;;;;;;;;;;;;;;;;
2022/05/30 14:13:17;;;;;;;;;;;;;;;6.81;90.94;99151.91;6275778;22;20006;-90
2022/05/30 14:19:05;;;;;;;;;;;;;;;;;;;;;
2022/05/30 14:22:01;;;;;;;;;;;;;;;;;;;;;
2022/05/30 14:24:31;;;;;;;;;;;;;;;6.73;90.40;99141.66;6259601;22;19994;-87
2022/05/30 14:26:57;;;;;;;;;;;;;;;6.68;90.28;99148.00;6244892;22;19915;-87
2022/05/30 14:30:02;;;;;;;;;;;;;;;;;;;;;
2022/05/30 14:35:46;;;;;;;;;;;;;;;;;;;;;
2022/05/30 14:39:03;;;;;;;;;;;;;;;;;;;;;
2022/05/30 14:41:41;;;;;;;;;;;;;;;;;;;;;
2022/05/30 14:44:30;;;;;;;;;;;;;;;;;;;;;
2022/05/30 14:47:26;;;;;;;;;;;;;;;;;;;;;
2022/05/30 14:56:31;;;;;;;;;;;;;;;;;;;;;
2022/05/30 14:59:21;;;;;;;;;;;;;;;;;;;;;
2022/05/30 15:05:26;;;;;;;;;;;;;;;;;;;;;
2022/05/30 15:07:47;;;;;;;;;;;;;;;6.70;90.14;99141.75;6267169;22;19911;-93
2022/05/30 15:10:42;;;;;;;;;;;;;;;6.67;90.20;99133.97;6276143;22;19918;-93
2022/05/30 15:16:45;;;;;;;;;;;;;;;;;;;;;
2022/05/30 15:22:18;;;;;;;;;;;;;;;6.71;90.09;99138.19;6166387;23;19924;-89
2022/05/30 15:24:59;;;;;;;;;;;;;;;;;;;;;
2022/05/30 15:27:33;;;;;;;;;;;;;;;6.60;89.86;99142.16;6243694;23;19983;-91
2022/05/30 15:29:58;;;;;;;;;;;;;;;6.68;90.13;99140.09;6255092;22;20228;-89
2022/05/30 15:32:28;;;;;;;;;;;;;;;6.66;89.84;99140.16;6275301;22;19941;-90
2022/05/30 15:35:16;;;;;;;;;;;;;;;6.68;90.05;99145.34;6274596;22;19915;-90
2022/05/30 15:37:53;;;;;;;;;;;;;;;;;;;;;
2022/05/30 15:40:29;;;;;;;;;;;;;;;6.67;90.16;99141.00;6276689;22;20002;-89
2022/05/30 15:43:04;;;;;;;;;;;;;;;6.69;90.38;99141.81;6275231;22;20281;-92
2022/05/30 15:45:50;;;;;;;;;;;;;;;6.73;90.33;99146.91;6273986;22;19946;-90
2022/05/30 16:14:59;;;;;;;;;;;;;;;6.80;90.11;99137.00;6305821;22;20482;-94
2022/05/30 16:26:44;;;;;;;;;;;;;;;6.87;90.01;99148.16;6222463;22;19922;-93
2022/05/30 17:43:09;;;;;;;;;;;;;;;6.96;89.90;99129.38;6212592;23;20022;-91
2022/05/30 18:06:12;;;;;;;;;;;;;;;11.02;86.98;99116.66;6122940;23;19924;-90
2022/05/30 18:09:14;;;;;;;;;;;;;;;;;;;;;
2022/05/30 18:11:58;;;;;;;;;;;;;;;8.30;87.42;99123.88;6229157;22;19993;-90
2022/05/30 18:40:44;;;;;;;;;;;;;;;7.18;90.90;99125.88;6285562;22;19923;-94
2022/05/30 18:43:34;;;;;;;;;;;;;;;7.18;90.77;99131.16;6254631;22;19926;-91
2022/05/30 18:46:42;;;;;;;;;;;;;;;;;;;;;
2022/05/30 18:49:13;;;;;;;;;;;;;;;7.07;90.98;99134.25;6201577;23;20369;-92
2022/05/30 18:51:40;;;;;;;;;;;;;;;7.15;91.11;99132.16;6218148;23;20348;-91
2022/05/30 18:54:13;;;;;;;;;;;;;;;7.07;90.98;99131.59;6218553;23;19922;-93
2022/05/30 18:56:42;;;;;;;;;;;;;;;7.03;91.00;99136.13;6246935;23;20300;-93
2022/05/30 19:02:33;;;;;;;;;;;;;;;7.00;90.98;99141.50;6234080;23;20350;-92
2022/05/30 19:05:23;;;;;;;;;;;;;;;7.12;91.32;99145.44;6220045;23;20217;-91
2022/05/30 19:10:55;;;;;;;;;;;;;;;7.06;91.20;99143.91;6280573;22;19923;-95
2022/05/30 19:22:57;;;;;;;;;;;;;;;7.05;91.19;99163.28;6094947;23;19920;-94
2022/05/30 19:25:34;;;;;;;;;;;;;;;;;;;;;
2022/05/30 20:00:47;;;;;;;;;;;;;;;7.06;91.33;99206.28;6223578;22;19915;-91
2022/05/30 20:05:58;;;;;;;;;;;;;;;7.04;91.58;99206.34;6298888;22;19923;-92
2022/05/30 20:08:52;;;;;;;;;;;;;;;;;;;;;
2022/05/30 20:14:12;;;;;;;;;;;;;;;7.04;91.83;99216.03;6287801;22;19926;-95
2022/05/30 20:27:12;;;;;;;;;;;;;;;7.02;91.49;99242.41;6302250;22;19923;-92
2022/05/30 20:29:38;;;;;;;;;;;;;;;7.01;91.34;99240.69;6282543;22;20346;-94
2022/05/30 20:32:04;;;;;;;;;;;;;;;7.00;91.48;99241.59;6281445;22;19940;-95
2022/05/30 20:34:29;;;;;;;;;;;;;;;7.01;91.75;99240.69;6281085;22;19933;-94
2022/05/30 20:37:15;;;;;;;;;;;;;;;7.01;91.29;99245.97;6282608;22;19917;-96
2022/05/30 20:39:40;;;;;;;;;;;;;;;6.95;91.57;99240.91;6284592;22;19944;-96
2022/05/30 20:44:52;;;;;;;;;;;;;;;6.90;91.59;99248.13;6307187;22;19922;-95
2022/05/30 20:47:19;;;;;;;;;;;;;;;6.94;91.69;99249.75;6284900;22;19919;-93
2022/05/30 20:49:50;;;;;;;;;;;;;;;6.95;91.67;99253.22;6315682;22;19922;-94
2022/05/30 20:52:18;;;;;;;;;;;;;;;6.89;91.46;99254.31;6315393;22;19918;-90
2022/05/30 20:54:43;;;;;;;;;;;;;;;6.94;91.67;99264.66;6315829;22;19925;-95
2022/05/30 20:57:10;;;;;;;;;;;;;;;6.95;91.72;99266.41;6317304;22;19914;-92
2022/05/30 20:59:39;;;;;;;;;;;;;;;6.91;91.47;99263.03;6342190;22;19915;-95
2022/05/30 21:02:04;;;;;;;;;;;;;;;6.92;91.69;99264.72;6314797;22;20315;-92
2022/05/30 21:04:29;;;;;;;;;;;;;;;6.93;91.84;99253.28;6315271;22;19925;-92
2022/05/30 21:06:55;;;;;;;;;;;;;;;6.90;91.48;99256.88;6342881;22;19976;-93
2022/05/30 21:09:20;;;;;;;;;;;;;;;6.84;91.70;99261.50;6345248;22;19911;-96
2022/05/30 21:11:46;;;;;;;;;;;;;;;6.89;92.02;99256.94;6343619;22;19964;-94
2022/05/30 21:14:11;;;;;;;;;;;;;;;6.89;91.59;99262.19;6343804;22;19911;-94
2022/05/30 21:16:42;;;;;;;;;;;;;;;6.86;91.71;99252.66;6343707;22;19922;-94
2022/05/30 21:19:10;;;;;;;;;;;;;;;6.89;91.85;99254.31;6326596;22;19938;-93
2022/05/30 21:21:38;;;;;;;;;;;;;;;6.85;91.63;99255.34;6282216;22;19922;-95
2022/05/30 21:24:04;;;;;;;;;;;;;;;6.81;91.71;99259.88;6283042;22;19964;-95
2022/05/30 21:26:32;;;;;;;;;;;;;;;6.86;91.86;99247.38;6282168;22;19915;-95
2022/05/30 21:28:57;;;;;;;;;;;;;;;6.85;91.53;99255.34;6311284;22;19988;-95
2022/05/30 21:31:25;;;;;;;;;;;;;;;6.80;91.57;99262.56;6313773;22;19911;-94
2022/05/30 21:33:51;;;;;;;;;;;;;;;6.84;91.69;99266.78;6310790;22;19911;-94
2022/05/30 21:36:27;;;;;;;;;;;;;;;6.83;91.60;99263.31;6310384;22;19911;-95
2022/05/30 21:38:56;;;;;;;;;;;;;;;6.81;91.83;99265.13;6309681;22;19938;-92
2022/05/30 21:41:22;;;;;;;;;;;;;;;6.87;92.00;99258.78;6280678;22;19918;-92
2022/05/30 21:45:17;;;;;;;;;;;;;;;;;;;;;
2022/05/30 22:01:38;;;;;;;;;;;;;;;6.82;91.81;99253.66;6213406;23;19916;-93
2022/05/30 22:12:23;;;;;;;;;;;;;;;6.77;91.73;99246.88;6310427;22;19926;-95
2022/05/30 22:18:40;;;;;;;;;;;;;;;6.80;91.96;99249.38;6196592;22;19930;-94
2022/05/30 22:27:01;;;;;;;;;;;;;;;6.71;91.79;99251.41;6327937;22;19920;-95
2022/05/30 22:38:05;;;;;;;;;;;;;;;6.70;91.92;99248.84;6268893;22;19915;-95
2022/05/30 22:40:42;;;;;;;;;;;;;;;6.76;91.75;99248.63;6258669;22;19919;-95
2022/05/30 22:43:19;;;;;;;;;;;;;;;6.72;91.92;99247.03;6252391;22;19919;-94
2022/05/30 22:46:22;;;;;;;;;;;;;;;6.73;91.79;99252.25;6295699;22;19929;-94
2022/05/30 22:48:48;;;;;;;;;;;;;;;6.73;92.20;99246.97;6283549;22;20365;-92
2022/05/30 22:51:32;;;;;;;;;;;;;;;6.68;91.84;99256.78;6269393;22;19927;-95
2022/05/30 22:54:24;;;;;;;;;;;;;;;6.71;92.06;99248.78;6239135;22;19911;-93
2022/05/30 22:56:55;;;;;;;;;;;;;;;6.69;91.89;99253.25;6252019;22;20002;-95
2022/05/30 22:59:31;;;;;;;;;;;;;;;6.77;92.11;99257.41;6250120;22;19915;-94
2022/05/30 23:02:32;;;;;;;;;;;;;;;;;;;;;
2022/05/30 23:05:24;;;;;;;;;;;;;;;6.76;92.17;99251.25;6246577;23;19978;-95
2022/05/30 23:08:15;;;;;;;;;;;;;;;6.74;92.01;99253.09;6220406;23;20347;-94
2022/05/30 23:11:28;;;;;;;;;;;;;;;;;;;;;
2022/05/30 23:14:16;;;;;;;;;;;;;;;6.79;92.41;99266.09;6205932;23;20034;-94
2022/05/30 23:17:07;;;;;;;;;;;;;;;6.76;92.31;99263.56;6244249;23;19950;-92
2022/05/30 23:19:34;;;;;;;;;;;;;;;6.78;92.03;99264.38;6244837;23;20003;-94
